sensor_id;sensor_type;location;lat;lon;timestamp;P1;durP1;ratioP1;P2;durP2;ratioP2
19049;SDS011;9657;45.940;12.840;2023-08-30T00:01:12;2.22;;;1.00;;
19049;SDS011;9657;45.940;12.840;2023-08-30T00:03:39;1.75;;;1.13;;
19049;SDS011;9657;45.940;12.840;2023-08-30T00:06:06;0.90;;;0.63;;
19049;SDS011;9657;45.940;12.840;2023-08-30T00:08:34;1.58;;;0.90;;
19049;SDS011;9657;45.940;12.840;2023-08-30T00:11:01;3.17;;;0.98;;
19049;SDS011;9657;45.940;12.840;2023-08-30T00:13:29;1.25;;;0.70;;
19049;SDS011;9657;45.940;12.840;2023-08-30T00:15:58;1.08;;;0.80;;
19049;SDS011;9657;45.940;12.840;2023-08-30T00:18:27;1.58;;;0.90;;
19049;SDS011;9657;45.940;12.840;2023-08-30T00:20:54;2.15;;;1.00;;
19049;SDS011;9657;45.940;12.840;2023-08-30T00:23:22;1.65;;;0.90;;
19049;SDS011;9657;45.940;12.840;2023-08-30T00:25:49;1.13;;;0.80;;
19049;SDS011;9657;45.940;12.840;2023-08-30T00:28:16;2.22;;;1.00;;
19049;SDS011;9657;45.940;12.840;2023-08-30T00:30:43;1.70;;;0.70;;
19049;SDS011;9657;45.940;12.840;2023-08-30T00:33:11;1.27;;;0.80;;
19049;SDS011;9657;45.940;12.840;2023-08-30T00:35:38;0.80;;;0.80;;
19049;SDS011;9657;45.940;12.840;2023-08-30T00:38:05;1.95;;;1.02;;
19049;SDS011;9657;45.940;12.840;2023-08-30T00:40:37;1.10;;;0.80;;
19049;SDS011;9657;45.940;12.840;2023-08-30T00:43:05;1.58;;;0.90;;
19049;SDS011;9657;45.940;12.840;2023-08-30T00:45:32;1.67;;;0.93;;
19049;SDS011;9657;45.940;12.840;2023-08-30T00:47:59;1.02;;;0.88;;
19049;SDS011;9657;45.940;12.840;2023-08-30T00:50:28;2.10;;;1.08;;
19049;SDS011;9657;45.940;12.840;2023-08-30T00:52:55;3.50;;;1.00;;
19049;SDS011;9657;45.940;12.840;2023-08-30T00:55:22;2.15;;;1.10;;
19049;SDS011;9657;45.940;12.840;2023-08-30T00:57:49;2.65;;;1.05;;
19049;SDS011;9657;45.940;12.840;2023-08-30T01:03:03;1.52;;;0.80;;
19049;SDS011;9657;45.940;12.840;2023-08-30T01:05:52;1.00;;;0.80;;
19049;SDS011;9657;45.940;12.840;2023-08-30T01:08:19;1.33;;;0.90;;
19049;SDS011;9657;45.940;12.840;2023-08-30T01:10:49;1.00;;;0.68;;
19049;SDS011;9657;45.940;12.840;2023-08-30T01:13:24;1.27;;;0.63;;
19049;SDS011;9657;45.940;12.840;2023-08-30T01:15:55;1.63;;;0.80;;
19049;SDS011;9657;45.940;12.840;2023-08-30T01:18:25;1.27;;;0.88;;
19049;SDS011;9657;45.940;12.840;2023-08-30T01:20:57;0.95;;;0.70;;
19049;SDS011;9657;45.940;12.840;2023-08-30T01:23:28;1.45;;;0.80;;
19049;SDS011;9657;45.940;12.840;2023-08-30T01:26:04;2.28;;;1.10;;
19049;SDS011;9657;45.940;12.840;2023-08-30T01:28:37;0.95;;;0.85;;
19049;SDS011;9657;45.940;12.840;2023-08-30T01:31:06;1.65;;;0.90;;
19049;SDS011;9657;45.940;12.840;2023-08-30T01:33:34;1.65;;;1.00;;
19049;SDS011;9657;45.940;12.840;2023-08-30T01:36:03;1.38;;;0.82;;
19049;SDS011;9657;45.940;12.840;2023-08-30T01:38:31;1.52;;;0.90;;
19049;SDS011;9657;45.940;12.840;2023-08-30T01:40:59;1.23;;;0.73;;
19049;SDS011;9657;45.940;12.840;2023-08-30T01:43:27;1.17;;;0.80;;
19049;SDS011;9657;45.940;12.840;2023-08-30T01:45:56;1.10;;;0.80;;
19049;SDS011;9657;45.940;12.840;2023-08-30T01:48:25;2.15;;;1.17;;
19049;SDS011;9657;45.940;12.840;2023-08-30T01:50:54;2.05;;;0.80;;
19049;SDS011;9657;45.940;12.840;2023-08-30T01:53:24;1.13;;;0.75;;
19049;SDS011;9657;45.940;12.840;2023-08-30T01:55:51;2.05;;;0.73;;
19049;SDS011;9657;45.940;12.840;2023-08-30T01:58:18;1.55;;;0.80;;
19049;SDS011;9657;45.940;12.840;2023-08-30T02:00:45;1.60;;;0.88;;
19049;SDS011;9657;45.940;12.840;2023-08-30T02:03:14;1.80;;;0.90;;
19049;SDS011;9657;45.940;12.840;2023-08-30T02:05:43;2.00;;;0.90;;
19049;SDS011;9657;45.940;12.840;2023-08-30T02:08:18;1.98;;;1.00;;
19049;SDS011;9657;45.940;12.840;2023-08-30T02:10:48;1.00;;;0.90;;
19049;SDS011;9657;45.940;12.840;2023-08-30T02:13:21;1.95;;;0.90;;
19049;SDS011;9657;45.940;12.840;2023-08-30T02:15:52;2.25;;;1.10;;
19049;SDS011;9657;45.940;12.840;2023-08-30T02:18:22;2.13;;;1.10;;
19049;SDS011;9657;45.940;12.840;2023-08-30T02:20:51;1.23;;;0.70;;
19049;SDS011;9657;45.940;12.840;2023-08-30T02:23:18;1.08;;;0.93;;
19049;SDS011;9657;45.940;12.840;2023-08-30T02:25:46;1.75;;;0.90;;
19049;SDS011;9657;45.940;12.840;2023-08-30T02:28:13;0.70;;;0.60;;
19049;SDS011;9657;45.940;12.840;2023-08-30T02:30:40;1.15;;;0.95;;
19049;SDS011;9657;45.940;12.840;2023-08-30T02:33:07;1.95;;;0.95;;
19049;SDS011;9657;45.940;12.840;2023-08-30T02:35:35;0.85;;;0.70;;
19049;SDS011;9657;45.940;12.840;2023-08-30T02:38:02;1.35;;;0.93;;
19049;SDS011;9657;45.940;12.840;2023-08-30T02:40:30;0.95;;;0.73;;
19049;SDS011;9657;45.940;12.840;2023-08-30T02:42:57;1.20;;;0.80;;
19049;SDS011;9657;45.940;12.840;2023-08-30T02:45:24;1.33;;;0.95;;
19049;SDS011;9657;45.940;12.840;2023-08-30T02:47:51;2.50;;;1.05;;
19049;SDS011;9657;45.940;12.840;2023-08-30T02:50:22;2.28;;;0.70;;
19049;SDS011;9657;45.940;12.840;2023-08-30T02:52:50;1.50;;;0.70;;
19049;SDS011;9657;45.940;12.840;2023-08-30T02:55:18;1.48;;;0.77;;
19049;SDS011;9657;45.940;12.840;2023-08-30T02:57:45;1.52;;;0.85;;
19049;SDS011;9657;45.940;12.840;2023-08-30T03:00:12;2.08;;;0.82;;
19049;SDS011;9657;45.940;12.840;2023-08-30T03:02:41;1.25;;;0.90;;
19049;SDS011;9657;45.940;12.840;2023-08-30T03:05:08;2.83;;;0.80;;
19049;SDS011;9657;45.940;12.840;2023-08-30T03:07:37;1.88;;;0.82;;
19049;SDS011;9657;45.940;12.840;2023-08-30T03:10:06;0.60;;;0.60;;
19049;SDS011;9657;45.940;12.840;2023-08-30T03:12:33;2.83;;;0.93;;
19049;SDS011;9657;45.940;12.840;2023-08-30T03:15:00;2.85;;;0.90;;
19049;SDS011;9657;45.940;12.840;2023-08-30T03:17:27;2.92;;;1.02;;
19049;SDS011;9657;45.940;12.840;2023-08-30T03:19:54;1.50;;;1.00;;
19049;SDS011;9657;45.940;12.840;2023-08-30T03:22:21;1.38;;;1.13;;
19049;SDS011;9657;45.940;12.840;2023-08-30T03:24:48;1.73;;;0.90;;
19049;SDS011;9657;45.940;12.840;2023-08-30T03:27:17;2.83;;;0.80;;
19049;SDS011;9657;45.940;12.840;2023-08-30T03:29:45;1.13;;;0.80;;
19049;SDS011;9657;45.940;12.840;2023-08-30T03:32:16;1.25;;;0.60;;
19049;SDS011;9657;45.940;12.840;2023-08-30T03:34:44;1.25;;;0.77;;
19049;SDS011;9657;45.940;12.840;2023-08-30T03:37:11;0.88;;;0.60;;
19049;SDS011;9657;45.940;12.840;2023-08-30T03:39:39;2.63;;;0.80;;
19049;SDS011;9657;45.940;12.840;2023-08-30T03:42:06;0.93;;;0.63;;
19049;SDS011;9657;45.940;12.840;2023-08-30T03:44:34;2.30;;;0.68;;
19049;SDS011;9657;45.940;12.840;2023-08-30T03:47:01;1.92;;;0.90;;
19049;SDS011;9657;45.940;12.840;2023-08-30T03:49:28;2.13;;;0.90;;
19049;SDS011;9657;45.940;12.840;2023-08-30T03:51:55;1.13;;;0.70;;
19049;SDS011;9657;45.940;12.840;2023-08-30T03:54:22;1.45;;;0.85;;
19049;SDS011;9657;45.940;12.840;2023-08-30T03:56:49;2.47;;;1.00;;
19049;SDS011;9657;45.940;12.840;2023-08-30T03:59:16;1.23;;;0.65;;
19049;SDS011;9657;45.940;12.840;2023-08-30T04:01:45;1.60;;;0.90;;
19049;SDS011;9657;45.940;12.840;2023-08-30T04:04:12;1.80;;;0.68;;
19049;SDS011;9657;45.940;12.840;2023-08-30T04:06:39;1.55;;;0.80;;
19049;SDS011;9657;45.940;12.840;2023-08-30T04:09:06;0.90;;;0.60;;
19049;SDS011;9657;45.940;12.840;2023-08-30T04:11:35;3.70;;;0.77;;
19049;SDS011;9657;45.940;12.840;2023-08-30T04:14:02;2.55;;;0.90;;
19049;SDS011;9657;45.940;12.840;2023-08-30T04:16:29;2.08;;;0.80;;
19049;SDS011;9657;45.940;12.840;2023-08-30T04:18:57;2.55;;;0.90;;
19049;SDS011;9657;45.940;12.840;2023-08-30T04:21:24;1.23;;;0.82;;
19049;SDS011;9657;45.940;12.840;2023-08-30T04:23:51;1.42;;;0.70;;
19049;SDS011;9657;45.940;12.840;2023-08-30T04:26:18;2.10;;;1.05;;
19049;SDS011;9657;45.940;12.840;2023-08-30T04:28:45;2.03;;;0.95;;
19049;SDS011;9657;45.940;12.840;2023-08-30T04:31:12;3.95;;;0.70;;
19049;SDS011;9657;45.940;12.840;2023-08-30T04:33:39;2.45;;;1.10;;
19049;SDS011;9657;45.940;12.840;2023-08-30T04:36:08;0.88;;;0.80;;
19049;SDS011;9657;45.940;12.840;2023-08-30T04:38:35;1.60;;;0.95;;
19049;SDS011;9657;45.940;12.840;2023-08-30T04:41:02;1.02;;;0.70;;
19049;SDS011;9657;45.940;12.840;2023-08-30T04:43:29;1.67;;;0.85;;
19049;SDS011;9657;45.940;12.840;2023-08-30T04:45:56;1.58;;;0.75;;
19049;SDS011;9657;45.940;12.840;2023-08-30T04:48:23;3.17;;;1.02;;
19049;SDS011;9657;45.940;12.840;2023-08-30T04:50:57;3.13;;;0.68;;
19049;SDS011;9657;45.940;12.840;2023-08-30T04:53:26;2.25;;;0.90;;
19049;SDS011;9657;45.940;12.840;2023-08-30T04:55:53;1.73;;;0.88;;
19049;SDS011;9657;45.940;12.840;2023-08-30T04:58:20;2.67;;;1.00;;
19049;SDS011;9657;45.940;12.840;2023-08-30T05:00:47;1.63;;;0.90;;
19049;SDS011;9657;45.940;12.840;2023-08-30T05:03:15;1.98;;;0.80;;
19049;SDS011;9657;45.940;12.840;2023-08-30T05:05:44;2.50;;;1.17;;
19049;SDS011;9657;45.940;12.840;2023-08-30T05:08:12;1.35;;;0.90;;
19049;SDS011;9657;45.940;12.840;2023-08-30T05:10:40;1.52;;;1.02;;
19049;SDS011;9657;45.940;12.840;2023-08-30T05:13:08;1.67;;;0.90;;
19049;SDS011;9657;45.940;12.840;2023-08-30T05:15:36;4.05;;;1.00;;
19049;SDS011;9657;45.940;12.840;2023-08-30T05:18:03;2.53;;;0.90;;
19049;SDS011;9657;45.940;12.840;2023-08-30T05:20:30;1.92;;;0.70;;
19049;SDS011;9657;45.940;12.840;2023-08-30T05:22:57;2.78;;;1.20;;
19049;SDS011;9657;45.940;12.840;2023-08-30T05:25:25;1.67;;;0.95;;
19049;SDS011;9657;45.940;12.840;2023-08-30T05:27:54;2.95;;;1.20;;
19049;SDS011;9657;45.940;12.840;2023-08-30T05:30:21;2.08;;;0.82;;
19049;SDS011;9657;45.940;12.840;2023-08-30T05:32:48;5.10;;;1.00;;
19049;SDS011;9657;45.940;12.840;2023-08-30T05:35:15;1.67;;;1.10;;
19049;SDS011;9657;45.940;12.840;2023-08-30T05:37:42;1.48;;;0.80;;
19049;SDS011;9657;45.940;12.840;2023-08-30T05:40:09;2.80;;;0.80;;
19049;SDS011;9657;45.940;12.840;2023-08-30T05:42:40;2.90;;;1.00;;
19049;SDS011;9657;45.940;12.840;2023-08-30T05:45:09;2.65;;;0.90;;
19049;SDS011;9657;45.940;12.840;2023-08-30T05:47:36;1.23;;;0.60;;
19049;SDS011;9657;45.940;12.840;2023-08-30T05:50:03;1.77;;;0.80;;
19049;SDS011;9657;45.940;12.840;2023-08-30T05:52:31;1.20;;;0.80;;
19049;SDS011;9657;45.940;12.840;2023-08-30T05:54:58;2.63;;;0.98;;
19049;SDS011;9657;45.940;12.840;2023-08-30T05:57:25;1.65;;;0.93;;
19049;SDS011;9657;45.940;12.840;2023-08-30T05:59:58;2.20;;;0.70;;
19049;SDS011;9657;45.940;12.840;2023-08-30T06:02:26;1.13;;;0.70;;
19049;SDS011;9657;45.940;12.840;2023-08-30T06:04:53;3.35;;;1.10;;
19049;SDS011;9657;45.940;12.840;2023-08-30T06:07:21;1.90;;;0.75;;
19049;SDS011;9657;45.940;12.840;2023-08-30T06:09:48;2.25;;;0.82;;
19049;SDS011;9657;45.940;12.840;2023-08-30T06:12:15;3.53;;;1.02;;
19049;SDS011;9657;45.940;12.840;2023-08-30T06:14:42;1.90;;;0.70;;
19049;SDS011;9657;45.940;12.840;2023-08-30T06:17:15;2.67;;;1.10;;
19049;SDS011;9657;45.940;12.840;2023-08-30T06:19:44;1.48;;;0.80;;
19049;SDS011;9657;45.940;12.840;2023-08-30T06:22:11;1.30;;;0.80;;
19049;SDS011;9657;45.940;12.840;2023-08-30T06:24:38;1.40;;;0.75;;
19049;SDS011;9657;45.940;12.840;2023-08-30T06:27:05;6.10;;;1.52;;
19049;SDS011;9657;45.940;12.840;2023-08-30T06:29:32;2.03;;;0.80;;
19049;SDS011;9657;45.940;12.840;2023-08-30T06:31:59;3.13;;;0.80;;
19049;SDS011;9657;45.940;12.840;2023-08-30T06:34:26;2.45;;;1.05;;
19049;SDS011;9657;45.940;12.840;2023-08-30T06:36:55;2.60;;;0.70;;
19049;SDS011;9657;45.940;12.840;2023-08-30T06:39:22;1.40;;;0.63;;
19049;SDS011;9657;45.940;12.840;2023-08-30T06:41:49;4.00;;;1.23;;
19049;SDS011;9657;45.940;12.840;2023-08-30T06:44:16;2.55;;;0.88;;
19049;SDS011;9657;45.940;12.840;2023-08-30T06:46:43;2.75;;;0.90;;
19049;SDS011;9657;45.940;12.840;2023-08-30T06:49:10;1.83;;;1.00;;
19049;SDS011;9657;45.940;12.840;2023-08-30T06:51:37;2.47;;;0.80;;
19049;SDS011;9657;45.940;12.840;2023-08-30T06:54:05;2.35;;;1.08;;
19049;SDS011;9657;45.940;12.840;2023-08-30T06:56:32;2.65;;;0.90;;
19049;SDS011;9657;45.940;12.840;2023-08-30T06:58:59;2.15;;;0.95;;
19049;SDS011;9657;45.940;12.840;2023-08-30T07:01:27;1.30;;;1.10;;
19049;SDS011;9657;45.940;12.840;2023-08-30T07:03:54;2.83;;;1.00;;
19049;SDS011;9657;45.940;12.840;2023-08-30T07:06:21;1.52;;;1.00;;
19049;SDS011;9657;45.940;12.840;2023-08-30T07:08:48;2.08;;;0.70;;
19049;SDS011;9657;45.940;12.840;2023-08-30T07:11:16;1.65;;;0.80;;
19049;SDS011;9657;45.940;12.840;2023-08-30T07:13:43;1.15;;;0.82;;
19049;SDS011;9657;45.940;12.840;2023-08-30T07:16:10;2.30;;;0.98;;
19049;SDS011;9657;45.940;12.840;2023-08-30T07:18:37;2.20;;;1.13;;
19049;SDS011;9657;45.940;12.840;2023-08-30T07:21:04;3.22;;;0.90;;
19049;SDS011;9657;45.940;12.840;2023-08-30T07:23:32;1.95;;;0.90;;
19049;SDS011;9657;45.940;12.840;2023-08-30T07:25:59;3.42;;;1.10;;
19049;SDS011;9657;45.940;12.840;2023-08-30T07:28:27;2.03;;;0.70;;
19049;SDS011;9657;45.940;12.840;2023-08-30T07:31:01;2.17;;;0.90;;
19049;SDS011;9657;45.940;12.840;2023-08-30T07:33:29;2.25;;;0.70;;
19049;SDS011;9657;45.940;12.840;2023-08-30T07:35:56;2.78;;;1.30;;
19049;SDS011;9657;45.940;12.840;2023-08-30T07:38:23;1.45;;;0.80;;
19049;SDS011;9657;45.940;12.840;2023-08-30T07:40:50;1.83;;;0.82;;
19049;SDS011;9657;45.940;12.840;2023-08-30T07:43:17;1.05;;;0.80;;
19049;SDS011;9657;45.940;12.840;2023-08-30T07:45:45;2.30;;;0.70;;
19049;SDS011;9657;45.940;12.840;2023-08-30T07:48:12;2.25;;;0.75;;
19049;SDS011;9657;45.940;12.840;2023-08-30T07:50:39;1.63;;;0.60;;
19049;SDS011;9657;45.940;12.840;2023-08-30T07:53:06;2.47;;;0.90;;
19049;SDS011;9657;45.940;12.840;2023-08-30T07:55:35;1.60;;;0.75;;
19049;SDS011;9657;45.940;12.840;2023-08-30T07:58:02;1.88;;;0.80;;
19049;SDS011;9657;45.940;12.840;2023-08-30T08:00:29;0.93;;;0.60;;
19049;SDS011;9657;45.940;12.840;2023-08-30T08:02:58;0.93;;;0.60;;
19049;SDS011;9657;45.940;12.840;2023-08-30T08:05:25;1.25;;;0.75;;
19049;SDS011;9657;45.940;12.840;2023-08-30T08:07:52;1.15;;;0.80;;
19049;SDS011;9657;45.940;12.840;2023-08-30T08:10:19;1.20;;;0.73;;
19049;SDS011;9657;45.940;12.840;2023-08-30T08:12:47;2.28;;;0.70;;
19049;SDS011;9657;45.940;12.840;2023-08-30T08:15:14;0.98;;;0.80;;
19049;SDS011;9657;45.940;12.840;2023-08-30T08:17:41;2.00;;;0.70;;
19049;SDS011;9657;45.940;12.840;2023-08-30T08:20:10;1.35;;;0.80;;
19049;SDS011;9657;45.940;12.840;2023-08-30T08:22:37;1.52;;;0.80;;
19049;SDS011;9657;45.940;12.840;2023-08-30T08:25:05;1.45;;;0.80;;
19049;SDS011;9657;45.940;12.840;2023-08-30T08:27:35;1.02;;;0.80;;
19049;SDS011;9657;45.940;12.840;2023-08-30T08:30:02;1.42;;;0.73;;
19049;SDS011;9657;45.940;12.840;2023-08-30T08:32:30;0.90;;;0.77;;
19049;SDS011;9657;45.940;12.840;2023-08-30T08:34:57;0.68;;;0.57;;
19049;SDS011;9657;45.940;12.840;2023-08-30T08:37:25;1.50;;;0.70;;
19049;SDS011;9657;45.940;12.840;2023-08-30T08:39:52;2.00;;;0.70;;
19049;SDS011;9657;45.940;12.840;2023-08-30T08:42:20;1.00;;;0.55;;
19049;SDS011;9657;45.940;12.840;2023-08-30T08:44:49;0.95;;;0.65;;
19049;SDS011;9657;45.940;12.840;2023-08-30T08:47:18;1.23;;;0.50;;
19049;SDS011;9657;45.940;12.840;2023-08-30T08:49:46;1.80;;;0.65;;
19049;SDS011;9657;45.940;12.840;2023-08-30T08:52:13;1.05;;;0.60;;
19049;SDS011;9657;45.940;12.840;2023-08-30T08:54:42;1.27;;;0.60;;
19049;SDS011;9657;45.940;12.840;2023-08-30T08:57:10;0.93;;;0.60;;
19049;SDS011;9657;45.940;12.840;2023-08-30T08:59:38;1.40;;;0.80;;
19049;SDS011;9657;45.940;12.840;2023-08-30T09:02:05;1.40;;;0.75;;
19049;SDS011;9657;45.940;12.840;2023-08-30T09:04:33;0.88;;;0.68;;
19049;SDS011;9657;45.940;12.840;2023-08-30T09:07:00;1.88;;;0.60;;
19049;SDS011;9657;45.940;12.840;2023-08-30T09:09:27;1.10;;;0.60;;
19049;SDS011;9657;45.940;12.840;2023-08-30T09:11:57;1.65;;;0.73;;
19049;SDS011;9657;45.940;12.840;2023-08-30T09:14:24;0.88;;;0.60;;
19049;SDS011;9657;45.940;12.840;2023-08-30T09:16:54;0.68;;;0.68;;
19049;SDS011;9657;45.940;12.840;2023-08-30T09:19:21;1.05;;;0.60;;
19049;SDS011;9657;45.940;12.840;2023-08-30T09:21:52;1.17;;;0.70;;
19049;SDS011;9657;45.940;12.840;2023-08-30T09:24:20;3.50;;;0.70;;
19049;SDS011;9657;45.940;12.840;2023-08-30T09:26:47;1.50;;;0.80;;
19049;SDS011;9657;45.940;12.840;2023-08-30T09:29:17;0.60;;;0.60;;
19049;SDS011;9657;45.940;12.840;2023-08-30T09:31:45;1.60;;;0.70;;
19049;SDS011;9657;45.940;12.840;2023-08-30T09:34:12;2.17;;;0.90;;
19049;SDS011;9657;45.940;12.840;2023-08-30T09:36:40;0.88;;;0.85;;
19049;SDS011;9657;45.940;12.840;2023-08-30T09:39:08;1.95;;;0.70;;
19049;SDS011;9657;45.940;12.840;2023-08-30T09:41:36;2.35;;;0.73;;
19049;SDS011;9657;45.940;12.840;2023-08-30T09:44:06;0.80;;;0.63;;
19049;SDS011;9657;45.940;12.840;2023-08-30T09:46:41;1.70;;;0.70;;
19049;SDS011;9657;45.940;12.840;2023-08-30T09:49:09;0.93;;;0.70;;
19049;SDS011;9657;45.940;12.840;2023-08-30T09:51:38;2.42;;;0.60;;
19049;SDS011;9657;45.940;12.840;2023-08-30T09:54:19;1.85;;;0.68;;
19049;SDS011;9657;45.940;12.840;2023-08-30T09:56:47;1.13;;;0.70;;
19049;SDS011;9657;45.940;12.840;2023-08-30T09:59:17;2.40;;;0.85;;
19049;SDS011;9657;45.940;12.840;2023-08-30T10:01:47;1.20;;;0.60;;
19049;SDS011;9657;45.940;12.840;2023-08-30T10:04:15;1.15;;;0.80;;
19049;SDS011;9657;45.940;12.840;2023-08-30T10:06:44;1.63;;;0.90;;
19049;SDS011;9657;45.940;12.840;2023-08-30T10:09:12;2.13;;;0.70;;
19049;SDS011;9657;45.940;12.840;2023-08-30T10:11:42;3.13;;;0.80;;
19049;SDS011;9657;45.940;12.840;2023-08-30T10:14:11;3.55;;;1.08;;
19049;SDS011;9657;45.940;12.840;2023-08-30T10:16:40;2.35;;;0.80;;
19049;SDS011;9657;45.940;12.840;2023-08-30T10:19:11;1.95;;;0.80;;
19049;SDS011;9657;45.940;12.840;2023-08-30T10:21:40;1.10;;;0.68;;
19049;SDS011;9657;45.940;12.840;2023-08-30T10:24:10;2.85;;;0.80;;
19049;SDS011;9657;45.940;12.840;2023-08-30T10:26:40;1.85;;;0.90;;
19049;SDS011;9657;45.940;12.840;2023-08-30T10:29:09;2.38;;;0.60;;
19049;SDS011;9657;45.940;12.840;2023-08-30T10:31:37;0.90;;;0.50;;
19049;SDS011;9657;45.940;12.840;2023-08-30T10:34:12;1.17;;;0.73;;
19049;SDS011;9657;45.940;12.840;2023-08-30T10:36:41;0.70;;;0.60;;
19049;SDS011;9657;45.940;12.840;2023-08-30T10:39:11;1.30;;;0.82;;
19049;SDS011;9657;45.940;12.840;2023-08-30T10:41:53;1.23;;;0.80;;
19049;SDS011;9657;45.940;12.840;2023-08-30T10:44:21;0.70;;;0.60;;
19049;SDS011;9657;45.940;12.840;2023-08-30T10:46:51;1.98;;;0.88;;
19049;SDS011;9657;45.940;12.840;2023-08-30T10:49:20;1.33;;;0.90;;
19049;SDS011;9657;45.940;12.840;2023-08-30T10:51:54;0.65;;;0.65;;
19049;SDS011;9657;45.940;12.840;2023-08-30T10:54:22;1.58;;;0.63;;
19049;SDS011;9657;45.940;12.840;2023-08-30T10:56:54;1.13;;;0.82;;
19049;SDS011;9657;45.940;12.840;2023-08-30T10:59:22;1.55;;;0.68;;
19049;SDS011;9657;45.940;12.840;2023-08-30T11:01:50;1.33;;;0.73;;
19049;SDS011;9657;45.940;12.840;2023-08-30T11:04:19;0.80;;;0.60;;
19049;SDS011;9657;45.940;12.840;2023-08-30T11:06:48;1.13;;;0.60;;
19049;SDS011;9657;45.940;12.840;2023-08-30T11:09:17;1.42;;;0.52;;
19049;SDS011;9657;45.940;12.840;2023-08-30T11:11:45;0.95;;;0.55;;
19049;SDS011;9657;45.940;12.840;2023-08-30T11:14:13;1.17;;;0.50;;
19049;SDS011;9657;45.940;12.840;2023-08-30T11:16:41;1.90;;;0.60;;
19049;SDS011;9657;45.940;12.840;2023-08-30T11:19:09;0.90;;;0.60;;
19049;SDS011;9657;45.940;12.840;2023-08-30T11:21:39;1.00;;;0.63;;
19049;SDS011;9657;45.940;12.840;2023-08-30T11:24:09;0.75;;;0.70;;
19049;SDS011;9657;45.940;12.840;2023-08-30T11:26:37;1.50;;;0.60;;
19049;SDS011;9657;45.940;12.840;2023-08-30T11:29:05;1.13;;;0.73;;
19049;SDS011;9657;45.940;12.840;2023-08-30T11:31:32;0.60;;;0.40;;
19049;SDS011;9657;45.940;12.840;2023-08-30T11:34:00;1.02;;;0.50;;
19049;SDS011;9657;45.940;12.840;2023-08-30T11:36:27;0.57;;;0.55;;
19049;SDS011;9657;45.940;12.840;2023-08-30T11:38:57;1.30;;;0.80;;
19049;SDS011;9657;45.940;12.840;2023-08-30T11:41:24;0.75;;;0.60;;
19049;SDS011;9657;45.940;12.840;2023-08-30T11:43:52;0.90;;;0.60;;
19049;SDS011;9657;45.940;12.840;2023-08-30T11:46:20;0.82;;;0.60;;
19049;SDS011;9657;45.940;12.840;2023-08-30T11:48:48;0.60;;;0.50;;
19049;SDS011;9657;45.940;12.840;2023-08-30T11:51:16;1.95;;;0.50;;
19049;SDS011;9657;45.940;12.840;2023-08-30T11:53:46;1.02;;;0.40;;
19049;SDS011;9657;45.940;12.840;2023-08-30T11:56:15;2.03;;;0.40;;
19049;SDS011;9657;45.940;12.840;2023-08-30T11:58:42;0.38;;;0.38;;
19049;SDS011;9657;45.940;12.840;2023-08-30T12:01:10;1.85;;;0.55;;
19049;SDS011;9657;45.940;12.840;2023-08-30T12:03:38;1.02;;;0.40;;
19049;SDS011;9657;45.940;12.840;2023-08-30T12:06:09;0.82;;;0.40;;
19049;SDS011;9657;45.940;12.840;2023-08-30T12:08:36;0.63;;;0.50;;
19049;SDS011;9657;45.940;12.840;2023-08-30T12:11:03;0.50;;;0.50;;
19049;SDS011;9657;45.940;12.840;2023-08-30T12:13:33;1.20;;;0.60;;
19049;SDS011;9657;45.940;12.840;2023-08-30T12:16:01;0.68;;;0.50;;
19049;SDS011;9657;45.940;12.840;2023-08-30T12:18:31;0.30;;;0.30;;
19049;SDS011;9657;45.940;12.840;2023-08-30T12:20:59;0.73;;;0.50;;
19049;SDS011;9657;45.940;12.840;2023-08-30T12:23:28;0.88;;;0.40;;
19049;SDS011;9657;45.940;12.840;2023-08-30T12:25:56;1.13;;;0.60;;
19049;SDS011;9657;45.940;12.840;2023-08-30T12:28:24;1.58;;;0.40;;
19049;SDS011;9657;45.940;12.840;2023-08-30T12:30:53;0.60;;;0.45;;
19049;SDS011;9657;45.940;12.840;2023-08-30T12:33:20;0.88;;;0.60;;
19049;SDS011;9657;45.940;12.840;2023-08-30T12:35:47;0.45;;;0.40;;
19049;SDS011;9657;45.940;12.840;2023-08-30T12:38:14;0.60;;;0.30;;
19049;SDS011;9657;45.940;12.840;2023-08-30T12:40:44;0.93;;;0.50;;
19049;SDS011;9657;45.940;12.840;2023-08-30T12:43:11;2.53;;;0.52;;
19049;SDS011;9657;45.940;12.840;2023-08-30T12:45:38;0.57;;;0.38;;
19049;SDS011;9657;45.940;12.840;2023-08-30T12:48:08;0.52;;;0.35;;
19049;SDS011;9657;45.940;12.840;2023-08-30T12:50:35;0.95;;;0.50;;
19049;SDS011;9657;45.940;12.840;2023-08-30T12:53:03;0.30;;;0.30;;
19049;SDS011;9657;45.940;12.840;2023-08-30T12:55:30;0.63;;;0.50;;
19049;SDS011;9657;45.940;12.840;2023-08-30T12:57:57;0.73;;;0.30;;
19049;SDS011;9657;45.940;12.840;2023-08-30T13:00:24;1.00;;;0.40;;
19049;SDS011;9657;45.940;12.840;2023-08-30T13:02:52;0.60;;;0.30;;
19049;SDS011;9657;45.940;12.840;2023-08-30T13:05:20;0.65;;;0.50;;
19049;SDS011;9657;45.940;12.840;2023-08-30T13:07:48;0.55;;;0.40;;
19049;SDS011;9657;45.940;12.840;2023-08-30T13:10:15;0.70;;;0.40;;
19049;SDS011;9657;45.940;12.840;2023-08-30T13:12:42;1.08;;;0.50;;
19049;SDS011;9657;45.940;12.840;2023-08-30T13:15:09;0.50;;;0.45;;
19049;SDS011;9657;45.940;12.840;2023-08-30T13:17:36;0.70;;;0.40;;
19049;SDS011;9657;45.940;12.840;2023-08-30T13:20:04;0.50;;;0.30;;
19049;SDS011;9657;45.940;12.840;2023-08-30T13:22:33;0.50;;;0.30;;
19049;SDS011;9657;45.940;12.840;2023-08-30T13:25:00;1.10;;;0.65;;
19049;SDS011;9657;45.940;12.840;2023-08-30T13:27:28;1.00;;;0.40;;
19049;SDS011;9657;45.940;12.840;2023-08-30T13:29:56;0.40;;;0.40;;
19049;SDS011;9657;45.940;12.840;2023-08-30T13:32:23;0.57;;;0.32;;
19049;SDS011;9657;45.940;12.840;2023-08-30T13:34:50;0.60;;;0.50;;
19049;SDS011;9657;45.940;12.840;2023-08-30T13:37:17;0.93;;;0.30;;
19049;SDS011;9657;45.940;12.840;2023-08-30T13:39:45;1.48;;;0.50;;
19049;SDS011;9657;45.940;12.840;2023-08-30T13:42:12;1.70;;;0.50;;
19049;SDS011;9657;45.940;12.840;2023-08-30T13:44:39;1.38;;;0.40;;
19049;SDS011;9657;45.940;12.840;2023-08-30T13:47:08;0.73;;;0.40;;
19049;SDS011;9657;45.940;12.840;2023-08-30T13:49:35;2.30;;;0.70;;
19049;SDS011;9657;45.940;12.840;2023-08-30T13:52:03;0.85;;;0.40;;
19049;SDS011;9657;45.940;12.840;2023-08-30T13:54:30;0.50;;;0.40;;
19049;SDS011;9657;45.940;12.840;2023-08-30T13:56:58;0.50;;;0.30;;
19049;SDS011;9657;45.940;12.840;2023-08-30T13:59:26;1.35;;;0.55;;
19049;SDS011;9657;45.940;12.840;2023-08-30T14:01:55;1.02;;;0.30;;
19049;SDS011;9657;45.940;12.840;2023-08-30T14:04:23;0.70;;;0.50;;
19049;SDS011;9657;45.940;12.840;2023-08-30T14:06:51;2.58;;;0.70;;
19049;SDS011;9657;45.940;12.840;2023-08-30T14:09:18;0.68;;;0.50;;
19049;SDS011;9657;45.940;12.840;2023-08-30T14:11:45;0.80;;;0.47;;
19049;SDS011;9657;45.940;12.840;2023-08-30T14:14:14;0.90;;;0.32;;
19049;SDS011;9657;45.940;12.840;2023-08-30T14:16:41;0.68;;;0.40;;
19049;SDS011;9657;45.940;12.840;2023-08-30T14:19:08;1.20;;;0.40;;
19049;SDS011;9657;45.940;12.840;2023-08-30T14:21:35;0.75;;;0.50;;
19049;SDS011;9657;45.940;12.840;2023-08-30T14:24:02;1.90;;;0.50;;
19049;SDS011;9657;45.940;12.840;2023-08-30T14:26:29;0.80;;;0.52;;
19049;SDS011;9657;45.940;12.840;2023-08-30T14:28:56;0.70;;;0.52;;
19049;SDS011;9657;45.940;12.840;2023-08-30T14:31:25;1.35;;;0.50;;
19049;SDS011;9657;45.940;12.840;2023-08-30T14:33:54;1.33;;;0.52;;
19049;SDS011;9657;45.940;12.840;2023-08-30T14:36:22;1.08;;;0.60;;
19049;SDS011;9657;45.940;12.840;2023-08-30T14:38:49;2.38;;;0.70;;
19049;SDS011;9657;45.940;12.840;2023-08-30T14:41:16;0.93;;;0.50;;
19049;SDS011;9657;45.940;12.840;2023-08-30T14:43:43;0.35;;;0.32;;
19049;SDS011;9657;45.940;12.840;2023-08-30T14:46:10;0.55;;;0.40;;
19049;SDS011;9657;45.940;12.840;2023-08-30T14:48:40;0.80;;;0.60;;
19049;SDS011;9657;45.940;12.840;2023-08-30T14:51:08;1.70;;;0.45;;
19049;SDS011;9657;45.940;12.840;2023-08-30T14:53:35;1.15;;;0.40;;
19049;SDS011;9657;45.940;12.840;2023-08-30T14:56:02;0.85;;;0.50;;